Terminal Aerodrome Forecast
Issued by NWS

Home | Current Version | Previous Version | Text Only | Print | Product List | Glossary On
Versions: 1 2 3 4 5 6 7 8 9 10 11 12 13 14 15 16 17 18 19 20 21 22 23 24 25 26 27 28
000
FTUS45 KGJT 271738
TAFMTJ
TAF
KMTJ 271738Z 2718/2818 VRB04KT P6SM BKN070
     FM272100 21016G24KT P6SM VCSH BKN090
     FM280100 22011KT P6SM -SHRA OVC045
     FM280600 26005KT 6SM -SHSN OVC040
     FM280900 26004KT 1 1/2SM -SN OVC015
     FM281400 23004KT P6SM OVC025=

USA.gov is the U.S. government's official web portal to all federal, state and local government web resources and services.